Time;durP1;ratioP1;P1;durP2;ratioP2;P2;SDS_P1;SDS_P2;PMS_P1;PMS_P2;Temp;Humidity;BMP_temperature;BMP_pressure;BME280_temperature;BME280_humidity;BME280_pressure;Samples;Min_cycle;Max_cycle;Signal;HPM_P1;HPM_P2
2022/07/31 00:02:15;;;;;;;;;;;;;;;32.53;38.16;100613.72;4416611;32;19960;-67
2022/07/31 00:04:40;;;;;;;;;;;;;;;32.82;37.72;100608.19;4414958;32;20009;-66
2022/07/31 00:07:06;;;;;;;;;;;;;;;32.82;37.67;100602.34;4415628;32;20020;-66
2022/07/31 00:09:31;;;;;;;;;;;;;;;32.58;37.84;100603.94;4414062;32;19979;-66
2022/07/31 00:11:57;;;;;;;;;;;;;;;32.63;37.93;100604.31;4417392;32;19973;-67
2022/07/31 00:14:22;;;;;;;;;;;;;;;32.90;37.49;100611.81;4414760;32;19996;-67
2022/07/31 00:16:48;;;;;;;;;;;;;;;32.96;37.14;100608.66;4414943;32;20728;-67
2022/07/31 00:19:14;;;;;;;;;;;;;;;33.08;37.13;100603.84;4416037;32;19953;-66
2022/07/31 00:21:39;;;;;;;;;;;;;;;32.80;37.66;100598.50;4419050;32;19965;-67
2022/07/31 00:24:05;;;;;;;;;;;;;;;33.03;37.37;100593.22;4416073;32;19990;-67
2022/07/31 00:26:30;;;;;;;;;;;;;;;33.02;37.37;100588.75;4418692;32;20430;-67
2022/07/31 00:28:55;;;;;;;;;;;;;;;33.09;37.15;100594.50;4413970;32;20595;-67
2022/07/31 00:31:21;;;;;;;;;;;;;;;32.87;37.39;100586.00;4415759;32;20042;-67
2022/07/31 00:33:47;;;;;;;;;;;;;;;32.86;37.32;100588.16;4415244;32;19968;-67
2022/07/31 00:36:12;;;;;;;;;;;;;;;32.95;37.05;100580.88;4415227;32;20423;-67
2022/07/31 00:38:38;;;;;;;;;;;;;;;33.02;37.02;100582.94;4416703;32;20406;-67
2022/07/31 00:41:03;;;;;;;;;;;;;;;33.19;36.87;100582.94;4417990;32;19996;-67
2022/07/31 00:43:29;;;;;;;;;;;;;;;33.35;36.54;100575.53;4413405;32;20011;-67
2022/07/31 00:45:56;;;;;;;;;;;;;;;33.40;36.58;100581.12;4414155;32;19969;-68
2022/07/31 00:48:22;;;;;;;;;;;;;;;33.23;36.48;100577.44;4412357;32;19961;-68
2022/07/31 00:50:47;;;;;;;;;;;;;;;33.48;36.43;100583.97;4404417;32;20008;-68
2022/07/31 00:53:13;;;;;;;;;;;;;;;33.57;36.11;100583.25;4416952;32;20572;-68
2022/07/31 00:55:38;;;;;;;;;;;;;;;33.75;35.67;100581.84;4414701;32;20295;-68
2022/07/31 00:58:04;;;;;;;;;;;;;;;33.92;35.89;100582.56;4415571;32;20397;-68
2022/07/31 01:00:29;;;;;;;;;;;;;;;33.91;35.85;100586.88;4416073;32;20367;-68
2022/07/31 01:02:55;;;;;;;;;;;;;;;33.79;35.66;100579.25;4414841;32;20026;-68
2022/07/31 01:05:21;;;;;;;;;;;;;;;33.70;36.20;100574.09;4418830;32;19992;-68
2022/07/31 01:07:47;;;;;;;;;;;;;;;33.50;36.42;100572.47;4413876;32;19995;-68
2022/07/31 01:10:15;;;;;;;;;;;;;;;33.69;36.36;100569.66;4419775;32;19957;-68
2022/07/31 01:12:46;;;;;;;;;;;;;;;33.61;36.23;100568.97;4423665;32;19957;-70
2022/07/31 01:15:12;;;;;;;;;;;;;;;33.29;36.69;100563.38;4417316;32;19980;-70
2022/07/31 01:17:39;;;;;;;;;;;;;;;33.50;36.29;100566.63;4415817;32;20017;-69
2022/07/31 01:20:05;;;;;;;;;;;;;;;33.35;36.52;100563.88;4416194;32;20248;-66
2022/07/31 01:30:24;;;;;;;;;;;;;;;33.62;36.36;100550.13;3951237;32;15727284;-69
2022/07/31 01:32:50;;;;;;;;;;;;;;;33.62;36.36;100550.13;4430696;32;19961;-68
2022/07/31 01:35:20;;;;;;;;;;;;;;;33.13;37.02;100538.69;4429916;32;20028;-68
2022/07/31 01:37:51;;;;;;;;;;;;;;;33.12;37.04;100540.81;4429761;32;19997;-69
2022/07/31 01:40:27;;;;;;;;;;;;;;;33.35;37.04;100537.63;4427193;32;19996;-68
2022/07/31 01:42:57;;;;;;;;;;;;;;;33.37;36.99;100541.50;4432393;32;19999;-68
2022/07/31 01:45:24;;;;;;;;;;;;;;;33.43;36.72;100547.06;4431213;32;20057;-69
2022/07/31 01:47:51;;;;;;;;;;;;;;;33.20;36.82;100531.97;4427775;32;20443;-68
2022/07/31 01:50:17;;;;;;;;;;;;;;;33.26;37.00;100532.47;4431411;32;19957;-67
2022/07/31 01:52:43;;;;;;;;;;;;;;;33.35;36.79;100541.31;4429190;32;20053;-67
2022/07/31 01:55:10;;;;;;;;;;;;;;;33.11;36.93;100536.38;4430061;32;20396;-67
2022/07/31 01:57:36;;;;;;;;;;;;;;;33.00;37.54;100524.47;4428718;32;20366;-68
2022/07/31 02:00:03;;;;;;;;;;;;;;;32.58;37.70;100525.25;4427975;32;20011;-67
2022/07/31 02:02:29;;;;;;;;;;;;;;;32.90;37.68;100527.28;4426065;32;19997;-68
2022/07/31 02:04:56;;;;;;;;;;;;;;;33.01;37.30;100523.09;4427564;32;19968;-67
2022/07/31 02:07:21;;;;;;;;;;;;;;;33.13;37.48;100521.19;4428251;32;19971;-67
2022/07/31 02:09:47;;;;;;;;;;;;;;;33.18;37.40;100523.03;4429213;32;19992;-67
2022/07/31 02:12:13;;;;;;;;;;;;;;;33.30;37.11;100524.06;4428268;32;20271;-67
2022/07/31 02:14:40;;;;;;;;;;;;;;;33.15;37.12;100518.41;4432935;32;20310;-68
2022/07/31 02:17:07;;;;;;;;;;;;;;;32.99;37.69;100514.16;4429828;32;19999;-66
2022/07/31 02:19:34;;;;;;;;;;;;;;;33.22;37.29;100514.66;4425187;32;19993;-67
2022/07/31 02:22:00;;;;;;;;;;;;;;;33.26;37.17;100509.16;4430644;32;20008;-67
2022/07/31 02:24:26;;;;;;;;;;;;;;;33.41;37.27;100506.06;4430481;32;19985;-68
2022/07/31 02:26:52;;;;;;;;;;;;;;;33.45;37.04;100503.47;4431120;32;19958;-67
2022/07/31 02:29:19;;;;;;;;;;;;;;;33.44;37.12;100501.94;4427501;32;19973;-67
2022/07/31 02:31:47;;;;;;;;;;;;;;;33.40;37.32;100499.44;4432737;32;20414;-68
2022/07/31 02:34:13;;;;;;;;;;;;;;;33.37;37.07;100503.56;4429330;32;20384;-68
2022/07/31 02:36:39;;;;;;;;;;;;;;;33.42;37.18;100495.91;4428353;32;20684;-66
2022/07/31 02:39:06;;;;;;;;;;;;;;;33.17;37.37;100492.34;4429576;32;19957;-67
2022/07/31 02:41:32;;;;;;;;;;;;;;;33.30;37.31;100481.09;4421681;32;19999;-67
2022/07/31 02:43:57;;;;;;;;;;;;;;;32.98;36.88;100480.56;4418766;32;20039;-67
2022/07/31 02:46:23;;;;;;;;;;;;;;;33.15;36.94;100474.66;4418821;32;19997;-67
2022/07/31 02:48:49;;;;;;;;;;;;;;;33.43;36.81;100474.87;4416252;32;19976;-68
2022/07/31 02:51:15;;;;;;;;;;;;;;;33.30;36.90;100472.34;4419330;32;20001;-68
2022/07/31 02:53:41;;;;;;;;;;;;;;;33.25;36.98;100464.63;4418963;32;19957;-68
2022/07/31 02:56:08;;;;;;;;;;;;;;;33.12;37.18;100455.47;4421072;32;20431;-67
2022/07/31 02:58:34;;;;;;;;;;;;;;;33.55;36.59;100457.59;4417905;32;20347;-67
2022/07/31 03:01:04;;;;;;;;;;;;;;;33.52;36.58;100453.75;4416613;32;19993;-67
2022/07/31 03:03:30;;;;;;;;;;;;;;;33.48;36.50;100453.44;4419211;32;20415;-67
2022/07/31 03:06:01;;;;;;;;;;;;;;;33.58;36.77;100460.06;4416360;32;20303;-67
2022/07/31 03:08:27;;;;;;;;;;;;;;;33.31;36.82;100456.34;4419019;32;20036;-68
2022/07/31 03:10:52;;;;;;;;;;;;;;;33.28;36.61;100445.16;4419101;32;20385;-68
2022/07/31 03:13:21;;;;;;;;;;;;;;;33.19;36.94;100442.94;4417053;32;20269;-68
2022/07/31 03:15:47;;;;;;;;;;;;;;;32.94;37.02;100442.31;4418581;32;19973;-67
2022/07/31 03:18:15;;;;;;;;;;;;;;;33.08;37.22;100447.16;4413232;32;19976;-67
2022/07/31 03:20:41;;;;;;;;;;;;;;;33.29;36.92;100441.63;4417110;32;19942;-68
2022/07/31 03:23:08;;;;;;;;;;;;;;;33.30;36.96;100442.38;4419914;32;20820;-68
2022/07/31 03:25:34;;;;;;;;;;;;;;;33.12;37.06;100443.81;4413881;32;19958;-68
2022/07/31 03:27:59;;;;;;;;;;;;;;;33.14;36.96;100430.19;4419875;32;20511;-68
2022/07/31 03:30:25;;;;;;;;;;;;;;;33.40;36.75;100435.25;4415766;32;20012;-68
2022/07/31 03:32:51;;;;;;;;;;;;;;;33.12;37.11;100435.06;4415700;32;19972;-68
2022/07/31 03:35:17;;;;;;;;;;;;;;;33.01;37.32;100436.34;4417483;32;19972;-68
2022/07/31 03:37:43;;;;;;;;;;;;;;;32.65;37.69;100428.25;4418773;32;20342;-68
2022/07/31 03:40:09;;;;;;;;;;;;;;;33.12;37.24;100427.09;4414107;32;19953;-68
2022/07/31 03:42:35;;;;;;;;;;;;;;;33.25;37.08;100431.78;4416302;32;20018;-68
2022/07/31 03:45:03;;;;;;;;;;;;;;;33.54;36.75;100432.72;4415741;32;20294;-68
2022/07/31 03:47:29;;;;;;;;;;;;;;;33.52;36.83;100424.56;4417446;32;20005;-68
2022/07/31 03:49:54;;;;;;;;;;;;;;;33.37;36.89;100426.97;4415420;32;19979;-68
2022/07/31 03:52:20;;;;;;;;;;;;;;;33.57;36.71;100425.66;4417468;32;19965;-68
2022/07/31 03:54:46;;;;;;;;;;;;;;;33.64;36.36;100418.94;4416960;32;19989;-68
2022/07/31 03:57:11;;;;;;;;;;;;;;;33.50;36.54;100414.88;4417570;32;19981;-68
2022/07/31 03:59:37;;;;;;;;;;;;;;;33.43;36.68;100415.75;4417396;32;19973;-68
2022/07/31 04:02:06;;;;;;;;;;;;;;;33.35;36.96;100403.41;4416592;32;19967;-68
2022/07/31 04:04:32;;;;;;;;;;;;;;;33.33;36.34;100400.34;4406185;32;19997;-68
2022/07/31 04:06:58;;;;;;;;;;;;;;;33.27;36.83;100403.53;4415618;32;20019;-68
2022/07/31 04:09:24;;;;;;;;;;;;;;;33.45;36.72;100410.09;4417023;32;20066;-68
2022/07/31 04:11:50;;;;;;;;;;;;;;;33.45;36.53;100407.97;4414823;32;20426;-68
2022/07/31 04:14:15;;;;;;;;;;;;;;;33.27;36.93;100408.59;4413231;32;19999;-68
2022/07/31 04:16:41;;;;;;;;;;;;;;;33.35;36.98;100400.50;4417683;32;20412;-68
2022/07/31 04:19:06;;;;;;;;;;;;;;;33.42;36.93;100403.34;4417001;32;20285;-68
2022/07/31 04:21:32;;;;;;;;;;;;;;;33.55;36.65;100397.09;4417516;32;19957;-68
2022/07/31 04:23:57;;;;;;;;;;;;;;;33.59;36.50;100405.41;4420031;32;19972;-68
2022/07/31 04:26:23;;;;;;;;;;;;;;;33.73;36.24;100397.75;4416721;32;20008;-69
2022/07/31 04:28:49;;;;;;;;;;;;;;;33.61;36.57;100396.78;4416737;32;19994;-68
2022/07/31 04:31:14;;;;;;;;;;;;;;;33.51;36.63;100393.06;4421241;32;19968;-69
2022/07/31 04:33:40;;;;;;;;;;;;;;;33.52;36.47;100392.47;4417218;32;19949;-69
2022/07/31 04:36:05;;;;;;;;;;;;;;;33.67;36.35;100388.53;4418335;32;19995;-69
2022/07/31 04:38:31;;;;;;;;;;;;;;;33.59;36.10;100394.47;4416027;32;20489;-69
2022/07/31 04:40:56;;;;;;;;;;;;;;;33.65;36.23;100397.13;4418116;32;20428;-69
2022/07/31 04:43:22;;;;;;;;;;;;;;;33.53;36.08;100402.75;4415666;32;20041;-69
2022/07/31 04:45:47;;;;;;;;;;;;;;;33.82;35.93;100408.69;4419458;32;20003;-69
2022/07/31 04:48:13;;;;;;;;;;;;;;;33.83;35.85;100405.16;4418651;32;20346;-69
2022/07/31 04:50:39;;;;;;;;;;;;;;;33.69;36.21;100397.44;4412469;32;19961;-69
2022/07/31 04:53:04;;;;;;;;;;;;;;;33.66;36.25;100387.78;4416851;32;19949;-69
2022/07/31 04:55:30;;;;;;;;;;;;;;;33.29;36.67;100388.34;4421079;32;19971;-69
2022/07/31 04:57:55;;;;;;;;;;;;;;;33.51;36.37;100393.06;4415274;32;20305;-69
2022/07/31 05:00:21;;;;;;;;;;;;;;;33.29;36.29;100391.25;4416950;32;19975;-68
2022/07/31 05:02:47;;;;;;;;;;;;;;;33.12;36.58;100385.47;4422626;32;19993;-68
2022/07/31 05:05:13;;;;;;;;;;;;;;;33.20;36.52;100389.84;4417323;32;19945;-68
2022/07/31 05:07:39;;;;;;;;;;;;;;;33.23;36.77;100385.72;4411989;32;20040;-68
2022/07/31 05:10:04;;;;;;;;;;;;;;;33.44;36.29;100383.06;4411176;32;20394;-68
2022/07/31 05:12:30;;;;;;;;;;;;;;;33.45;36.45;100378.00;4414700;32;19962;-68
2022/07/31 05:14:55;;;;;;;;;;;;;;;33.63;36.39;100380.22;4414697;32;19997;-68
2022/07/31 05:17:21;;;;;;;;;;;;;;;33.32;36.52;100384.22;4417174;32;20255;-67
2022/07/31 05:19:46;;;;;;;;;;;;;;;33.28;36.66;100381.72;4415632;32;19990;-68
2022/07/31 05:22:12;;;;;;;;;;;;;;;33.44;36.45;100385.22;4414915;32;19999;-68
2022/07/31 05:24:39;;;;;;;;;;;;;;;33.33;36.54;100379.91;4416653;32;20013;-68
2022/07/31 05:27:04;;;;;;;;;;;;;;;33.64;36.04;100386.81;4417835;32;19965;-68
2022/07/31 05:29:31;;;;;;;;;;;;;;;33.74;35.95;100399.28;4417227;32;19987;-68
2022/07/31 05:31:56;;;;;;;;;;;;;;;33.85;35.89;100395.81;4417052;32;20445;-67
2022/07/31 05:34:23;;;;;;;;;;;;;;;33.81;36.04;100398.41;4415310;32;19937;-67
2022/07/31 05:36:49;;;;;;;;;;;;;;;33.83;35.96;100405.16;4417407;32;20026;-67
2022/07/31 05:39:16;;;;;;;;;;;;;;;33.63;36.11;100391.12;4416891;32;21141;-68
2022/07/31 05:41:42;;;;;;;;;;;;;;;33.84;36.64;100391.34;4415826;32;19990;-68
2022/07/31 05:44:07;;;;;;;;;;;;;;;33.81;36.36;100389.66;4416441;32;20012;-68
2022/07/31 05:46:33;;;;;;;;;;;;;;;33.71;36.00;100397.63;4418150;32;19949;-67
2022/07/31 05:48:59;;;;;;;;;;;;;;;33.84;36.35;100394.28;4415291;32;20065;-67
2022/07/31 05:51:24;;;;;;;;;;;;;;;33.98;36.50;100389.56;4416727;32;20416;-67
2022/07/31 05:53:49;;;;;;;;;;;;;;;34.17;36.26;100392.50;4418472;32;20337;-67
2022/07/31 05:56:15;;;;;;;;;;;;;;;34.46;35.76;100392.56;4417699;32;20232;-67
2022/07/31 05:58:41;;;;;;;;;;;;;;;34.60;35.73;100393.66;4415219;32;19958;-67
2022/07/31 06:01:06;;;;;;;;;;;;;;;34.58;35.17;100387.62;4418522;32;19960;-67
2022/07/31 06:03:34;;;;;;;;;;;;;;;34.60;34.65;100390.72;4416868;32;19984;-67
2022/07/31 06:06:01;;;;;;;;;;;;;;;34.49;35.22;100394.25;4415207;32;19997;-67
2022/07/31 06:08:27;;;;;;;;;;;;;;;34.65;35.00;100390.41;4416918;32;20695;-67
2022/07/31 06:10:53;;;;;;;;;;;;;;;34.81;35.11;100391.62;4415093;32;20376;-67
2022/07/31 06:13:22;;;;;;;;;;;;;;;34.71;34.97;100393.78;4416602;32;19965;-68
2022/07/31 06:15:48;;;;;;;;;;;;;;;34.83;34.68;100396.84;4419031;32;19950;-68
2022/07/31 06:18:14;;;;;;;;;;;;;;;34.80;34.42;100398.84;4417134;32;20349;-68
2022/07/31 06:20:39;;;;;;;;;;;;;;;35.05;34.25;100402.22;4417751;32;19969;-68
2022/07/31 06:23:05;;;;;;;;;;;;;;;34.74;34.55;100401.31;4417833;32;20126;-68
2022/07/31 06:25:31;;;;;;;;;;;;;;;34.74;34.48;100392.56;4416521;32;19996;-68
2022/07/31 06:27:56;;;;;;;;;;;;;;;34.93;34.21;100395.47;4419632;32;19957;-68
2022/07/31 06:30:22;;;;;;;;;;;;;;;35.03;34.47;100387.44;4417896;32;19964;-68
2022/07/31 06:32:48;;;;;;;;;;;;;;;35.05;34.33;100389.75;4420914;32;20393;-68
2022/07/31 06:35:13;;;;;;;;;;;;;;;35.22;34.41;100398.34;4422800;32;19987;-68
2022/07/31 06:37:38;;;;;;;;;;;;;;;35.13;33.74;100411.62;4417761;32;19985;-68
2022/07/31 06:40:04;;;;;;;;;;;;;;;35.45;34.01;100408.16;4417484;32;19970;-68
2022/07/31 06:42:30;;;;;;;;;;;;;;;35.56;33.70;100397.94;4419816;32;19972;-68
2022/07/31 06:44:55;;;;;;;;;;;;;;;34.75;33.70;100402.84;4417407;32;20063;-68
2022/07/31 06:47:22;;;;;;;;;;;;;;;34.58;33.59;100408.88;4417214;32;19986;-68
2022/07/31 06:49:48;;;;;;;;;;;;;;;34.87;33.60;100408.88;4417822;32;19979;-68
2022/07/31 06:52:14;;;;;;;;;;;;;;;35.49;32.96;100416.47;4421017;32;19950;-68
2022/07/31 06:54:40;;;;;;;;;;;;;;;35.24;32.88;100410.94;4417015;32;19993;-68
2022/07/31 06:57:06;;;;;;;;;;;;;;;35.47;33.12;100410.44;4417917;32;20008;-68
2022/07/31 06:59:31;;;;;;;;;;;;;;;35.66;32.81;100419.16;4419502;32;19958;-68
2022/07/31 07:01:57;;;;;;;;;;;;;;;35.63;32.34;100417.47;4419666;32;20040;-68
2022/07/31 07:04:22;;;;;;;;;;;;;;;36.33;31.88;100421.75;4419790;32;20044;-69
2022/07/31 07:06:48;;;;;;;;;;;;;;;35.86;31.69;100414.78;4414778;32;19965;-68
2022/07/31 07:09:13;;;;;;;;;;;;;;;34.96;32.97;100423.50;4417759;32;20043;-68
2022/07/31 07:11:39;;;;;;;;;;;;;;;35.17;32.51;100422.81;4417087;32;19988;-68
2022/07/31 07:14:05;;;;;;;;;;;;;;;35.30;32.55;100423.09;4418601;32;20453;-69
2022/07/31 07:16:30;;;;;;;;;;;;;;;35.19;32.85;100423.75;4422088;32;19964;-68
2022/07/31 07:18:55;;;;;;;;;;;;;;;34.88;33.47;100422.88;4415417;32;19980;-68
2022/07/31 07:21:21;;;;;;;;;;;;;;;34.83;33.10;100423.16;4416783;32;19964;-68
2022/07/31 07:23:46;;;;;;;;;;;;;;;35.09;33.11;100425.91;4417498;32;19953;-68
2022/07/31 07:26:12;;;;;;;;;;;;;;;34.70;33.20;100426.56;4419330;32;19997;-68
2022/07/31 07:28:37;;;;;;;;;;;;;;;35.00;32.99;100425.97;4415129;32;19998;-69
2022/07/31 07:31:03;;;;;;;;;;;;;;;35.34;32.78;100435.12;4416556;32;20611;-68
2022/07/31 07:33:30;;;;;;;;;;;;;;;35.43;32.65;100431.41;4419047;32;19968;-69
2022/07/31 07:35:56;;;;;;;;;;;;;;;35.51;32.58;100429.06;4419919;32;20358;-69
2022/07/31 07:38:21;;;;;;;;;;;;;;;35.71;32.50;100427.59;4416718;32;19980;-68
2022/07/31 07:40:47;;;;;;;;;;;;;;;35.40;32.26;100432.66;4418350;32;21234;-68
2022/07/31 07:43:12;;;;;;;;;;;;;;;35.93;32.06;100431.38;4416706;32;19952;-68
2022/07/31 07:45:38;;;;;;;;;;;;;;;35.85;32.07;100431.56;4419491;32;19957;-68
2022/07/31 07:48:05;;;;;;;;;;;;;;;36.20;31.81;100431.84;4415584;32;19991;-68
2022/07/31 07:50:30;;;;;;;;;;;;;;;36.35;31.68;100427.75;4416992;32;20360;-68
2022/07/31 07:52:56;;;;;;;;;;;;;;;36.72;31.20;100422.97;4418243;32;19989;-68
2022/07/31 07:55:21;;;;;;;;;;;;;;;36.47;30.46;100422.72;4419262;32;19949;-68
2022/07/31 07:57:48;;;;;;;;;;;;;;;36.84;30.23;100426.75;4419410;32;20016;-68
2022/07/31 08:00:14;;;;;;;;;;;;;;;36.95;30.73;100432.66;4417515;32;19952;-68
2022/07/31 08:02:41;;;;;;;;;;;;;;;37.17;30.57;100440.00;4419432;32;19993;-68
2022/07/31 08:05:07;;;;;;;;;;;;;;;37.13;30.38;100439.75;4416040;32;19981;-68
2022/07/31 08:07:35;;;;;;;;;;;;;;;37.04;30.24;100440.59;4418606;32;20372;-68
2022/07/31 08:10:01;;;;;;;;;;;;;;;37.28;30.70;100444.41;4417244;32;19977;-68
2022/07/31 08:12:26;;;;;;;;;;;;;;;37.28;30.39;100448.09;4416679;32;20017;-68
2022/07/31 08:14:52;;;;;;;;;;;;;;;37.75;29.56;100446.03;4415191;32;19965;-68
2022/07/31 08:17:17;;;;;;;;;;;;;;;37.73;29.28;100446.66;4415857;32;19958;-68
2022/07/31 08:19:44;;;;;;;;;;;;;;;37.08;29.16;100443.03;4416006;32;20012;-68
2022/07/31 08:22:09;;;;;;;;;;;;;;;37.79;28.55;100437.44;4418549;32;19957;-68
2022/07/31 08:24:35;;;;;;;;;;;;;;;37.85;28.55;100444.50;4414507;32;19953;-68
2022/07/31 08:27:32;;;;;;;;;;;;;;;38.12;28.21;100452.81;4417112;32;19981;-68
2022/07/31 08:29:46;;;;;;;;;;;;;;;37.88;28.55;100452.03;4412960;32;20595;-68
2022/07/31 08:32:11;;;;;;;;;;;;;;;37.97;28.82;100449.63;4421618;32;19968;-68
2022/07/31 08:34:37;;;;;;;;;;;;;;;38.40;28.17;100445.72;4417719;32;19949;-68
2022/07/31 08:37:03;;;;;;;;;;;;;;;38.60;27.95;100452.09;4414390;32;19946;-68
2022/07/31 08:39:28;;;;;;;;;;;;;;;38.76;27.58;100453.06;4415414;32;19953;-68
2022/07/31 08:41:55;;;;;;;;;;;;;;;38.70;27.27;100459.38;4415809;32;20000;-68
2022/07/31 08:44:20;;;;;;;;;;;;;;;38.84;27.44;100453.56;4419023;32;20335;-68
2022/07/31 08:46:46;;;;;;;;;;;;;;;38.70;27.45;100459.38;4416010;32;20024;-68
2022/07/31 08:49:14;;;;;;;;;;;;;;;38.74;27.30;100464.72;4414327;32;19992;-68
2022/07/31 08:51:42;;;;;;;;;;;;;;;38.65;26.99;100469.34;4417736;32;19989;-68
2022/07/31 08:54:10;;;;;;;;;;;;;;;38.24;27.72;100468.25;4417953;32;19984;-68
2022/07/31 08:56:36;;;;;;;;;;;;;;;38.12;28.59;100478.50;4417701;32;19964;-68
2022/07/31 08:59:03;;;;;;;;;;;;;;;38.54;27.71;100472.31;4419455;32;20016;-68
2022/07/31 09:01:28;;;;;;;;;;;;;;;38.26;27.77;100468.41;4417972;32;19958;-68
2022/07/31 09:03:54;;;;;;;;;;;;;;;38.65;27.39;100481.09;4417314;32;20341;-68
2022/07/31 09:06:19;;;;;;;;;;;;;;;38.71;27.53;100475.59;4417339;32;21387;-68
2022/07/31 09:08:45;;;;;;;;;;;;;;;38.44;27.76;100475.41;4416764;32;19953;-68
2022/07/31 09:11:12;;;;;;;;;;;;;;;38.78;27.00;100476.72;4417117;32;19993;-69
2022/07/31 09:13:38;;;;;;;;;;;;;;;38.56;27.34;100473.19;4414075;32;19962;-69
2022/07/31 09:16:04;;;;;;;;;;;;;;;38.48;27.34;100480.75;4415785;32;19961;-69
2022/07/31 09:18:30;;;;;;;;;;;;;;;38.16;27.56;100481.69;4412920;32;20313;-69
2022/07/31 09:20:57;;;;;;;;;;;;;;;38.41;27.72;100478.84;4414044;32;19954;-69
2022/07/31 09:23:23;;;;;;;;;;;;;;;38.57;27.22;100480.63;4414608;32;19990;-69
2022/07/31 09:28:32;;;;;;;;;;;;;;;39.25;26.60;100486.91;3951298;32;15722626;-68
2022/07/31 09:30:57;;;;;;;;;;;;;;;39.25;26.60;100486.91;4428742;32;19972;-68
2022/07/31 09:33:26;;;;;;;;;;;;;;;38.05;28.22;100494.19;4431014;32;20314;-69
2022/07/31 09:35:53;;;;;;;;;;;;;;;38.19;27.80;100489.22;4430440;32;19953;-68
2022/07/31 09:38:19;;;;;;;;;;;;;;;38.66;27.27;100494.44;4428029;32;19991;-69
2022/07/31 09:40:45;;;;;;;;;;;;;;;37.68;28.21;100497.75;4426863;32;19990;-69
2022/07/31 09:43:15;;;;;;;;;;;;;;;37.43;28.31;100496.78;4429747;32;20016;-69
2022/07/31 09:45:42;;;;;;;;;;;;;;;36.72;29.56;100494.09;4431638;32;20002;-68
2022/07/31 09:48:11;;;;;;;;;;;;;;;36.86;29.10;100495.13;4428203;32;19961;-69
2022/07/31 09:50:52;;;;;;;;;;;;;;;36.76;29.07;100508.31;4430344;32;20007;-68
2022/07/31 09:53:18;;;;;;;;;;;;;;;37.43;28.58;100508.50;4428543;32;19954;-68
2022/07/31 09:55:51;;;;;;;;;;;;;;;36.78;29.39;100515.09;4431666;32;19972;-68
2022/07/31 09:58:17;;;;;;;;;;;;;;;36.32;30.11;100514.00;4428894;32;19949;-69
2022/07/31 10:00:44;;;;;;;;;;;;;;;37.51;28.66;100518.59;4426121;32;20002;-69
2022/07/31 10:03:12;;;;;;;;;;;;;;;37.83;28.40;100517.06;4430931;32;20027;-69
2022/07/31 10:05:40;;;;;;;;;;;;;;;38.27;28.54;100525.00;4428370;32;19961;-68
2022/07/31 10:08:06;;;;;;;;;;;;;;;38.32;27.64;100527.56;4427848;32;20293;-69
2022/07/31 10:10:32;;;;;;;;;;;;;;;39.26;27.09;100530.44;4427669;32;20312;-69
2022/07/31 10:13:00;;;;;;;;;;;;;;;39.82;25.79;100533.00;4428577;32;20024;-67
2022/07/31 10:15:27;;;;;;;;;;;;;;;40.78;24.77;100543.47;4433537;32;19987;-68
2022/07/31 10:17:53;;;;;;;;;;;;;;;40.84;24.15;100535.72;4429411;32;19962;-68
2022/07/31 10:20:22;;;;;;;;;;;;;;;41.11;23.82;100546.72;4429602;32;20316;-68
2022/07/31 10:22:52;;;;;;;;;;;;;;;41.81;22.96;100543.59;4430523;32;19965;-68
2022/07/31 10:25:20;;;;;;;;;;;;;;;41.88;22.79;100545.41;4414334;32;19961;-68
2022/07/31 10:27:47;;;;;;;;;;;;;;;41.72;23.70;100535.78;4430481;32;20296;-68
2022/07/31 10:30:12;;;;;;;;;;;;;;;42.11;24.24;100553.97;4428498;32;20000;-68
2022/07/31 10:32:39;;;;;;;;;;;;;;;41.38;25.00;100561.41;4429622;32;20323;-68
2022/07/31 10:35:06;;;;;;;;;;;;;;;38.52;26.92;100558.22;4426938;32;19945;-68
2022/07/31 10:37:51;;;;;;;;;;;;;;;37.46;28.10;100575.53;4427265;32;20020;-68
2022/07/31 10:40:22;;;;;;;;;;;;;;;37.28;28.32;100591.94;4406091;32;20440;-68
2022/07/31 10:42:51;;;;;;;;;;;;;;;37.71;28.12;100589.69;4418466;32;20007;-68
2022/07/31 10:45:17;;;;;;;;;;;;;;;37.81;27.84;100597.00;4417970;32;20026;-68
2022/07/31 10:47:52;;;;;;;;;;;;;;;36.62;30.21;100586.50;4418101;32;20395;-67
2022/07/31 10:50:19;;;;;;;;;;;;;;;36.79;30.45;100595.84;4417640;32;19963;-67
2022/07/31 10:52:45;;;;;;;;;;;;;;;36.29;30.93;100603.19;4418749;32;19993;-67
2022/07/31 10:55:15;;;;;;;;;;;;;;;36.14;31.54;100610.91;4418488;32;19988;-67
2022/07/31 10:57:40;;;;;;;;;;;;;;;35.66;32.11;100612.38;4416865;32;20073;-67
2022/07/31 11:02:45;;;;;;;;;;;;;;;35.02;33.08;100625.75;3966480;31;15716375;-68
2022/07/31 11:05:12;;;;;;;;;;;;;;;35.02;33.08;100625.75;4452356;32;19957;-68
2022/07/31 11:07:45;;;;;;;;;;;;;;;34.32;33.78;100620.88;4451176;32;20021;-68
2022/07/31 11:13:06;;;;;;;;;;;;;;;34.56;33.96;100627.94;3952369;32;15723594;-68
2022/07/31 11:15:32;;;;;;;;;;;;;;;34.38;33.61;100638.16;4437701;32;20468;-68
2022/07/31 11:18:09;;;;;;;;;;;;;;;34.60;33.84;100637.00;4436874;32;19976;-68
2022/07/31 11:20:34;;;;;;;;;;;;;;;34.79;34.17;100639.22;4436501;32;20587;-68
2022/07/31 11:23:03;;;;;;;;;;;;;;;35.11;34.24;100645.47;4435279;32;20111;-68
2022/07/31 11:25:30;;;;;;;;;;;;;;;34.95;33.80;100638.38;4423937;32;20046;-69
2022/07/31 11:27:56;;;;;;;;;;;;;;;34.72;33.20;100635.06;4435032;32;19957;-68
2022/07/31 11:30:22;;;;;;;;;;;;;;;34.47;34.49;100642.53;4435852;32;19958;-68
2022/07/31 11:32:48;;;;;;;;;;;;;;;35.03;33.62;100644.09;4437065;32;19949;-68
2022/07/31 11:35:29;;;;;;;;;;;;;;;35.51;32.43;100645.69;4423685;32;20004;-68
2022/07/31 11:37:56;;;;;;;;;;;;;;;35.90;32.26;100643.50;4433536;32;19958;-68
2022/07/31 11:40:22;;;;;;;;;;;;;;;35.74;31.76;100648.88;4436046;32;20394;-68
2022/07/31 11:42:48;;;;;;;;;;;;;;;36.09;32.32;100652.25;4433624;32;19964;-69
2022/07/31 11:45:14;;;;;;;;;;;;;;;36.43;32.65;100657.72;4435960;32;20000;-69
2022/07/31 11:47:40;;;;;;;;;;;;;;;36.77;31.44;100653.56;4435408;32;20443;-68
2022/07/31 11:50:06;;;;;;;;;;;;;;;36.53;31.64;100660.63;4434238;32;19966;-69
2022/07/31 11:52:32;;;;;;;;;;;;;;;36.38;30.52;100664.66;4434484;32;19986;-68
2022/07/31 11:55:06;;;;;;;;;;;;;;;36.62;31.16;100678.16;4434170;32;20318;-68
2022/07/31 11:57:32;;;;;;;;;;;;;;;36.60;31.10;100666.31;4432721;32;19950;-68
2022/07/31 11:59:57;;;;;;;;;;;;;;;36.31;32.09;100673.66;4435771;32;20016;-68
2022/07/31 12:02:24;;;;;;;;;;;;;;;36.02;31.76;100676.63;4437739;32;19989;-68
2022/07/31 12:04:50;;;;;;;;;;;;;;;35.93;31.97;100689.91;4432919;32;20012;-68
2022/07/31 12:07:16;;;;;;;;;;;;;;;36.30;31.46;100683.84;4432027;32;19954;-68
2022/07/31 12:09:41;;;;;;;;;;;;;;;36.57;31.63;100693.16;4433598;32;19994;-68
2022/07/31 12:12:07;;;;;;;;;;;;;;;36.58;31.64;100700.56;4434508;32;19949;-68
2022/07/31 12:14:36;;;;;;;;;;;;;;;37.01;30.31;100703.00;4435205;32;20295;-68
2022/07/31 12:17:02;;;;;;;;;;;;;;;36.33;30.87;100700.19;4434774;32;19984;-68
2022/07/31 12:19:29;;;;;;;;;;;;;;;37.07;30.84;100705.59;4433503;32;20000;-67
2022/07/31 12:21:55;;;;;;;;;;;;;;;37.11;30.12;100709.56;4433948;32;20000;-67
2022/07/31 12:24:22;;;;;;;;;;;;;;;37.05;29.59;100706.22;4424664;32;19945;-67
2022/07/31 12:26:50;;;;;;;;;;;;;;;36.63;30.16;100706.09;4422550;32;20008;-67
2022/07/31 12:29:15;;;;;;;;;;;;;;;36.96;29.86;100712.91;4421182;32;20429;-67
2022/07/31 12:34:25;;;;;;;;;;;;;;;37.78;28.71;100720.88;3952020;32;15748542;-68
2022/07/31 12:39:37;;;;;;;;;;;;;;;38.70;28.04;100724.13;3974575;31;15717184;-68
2022/07/31 12:42:03;;;;;;;;;;;;;;;38.70;28.04;100724.13;4460196;32;19952;-68
2022/07/31 12:44:28;;;;;;;;;;;;;;;38.40;26.69;100715.50;4456986;32;19993;-68
2022/07/31 12:46:54;;;;;;;;;;;;;;;38.77;27.53;100726.03;4457395;32;19953;-68
2022/07/31 12:49:20;;;;;;;;;;;;;;;38.28;27.02;100735.28;4455672;32;20380;-68
2022/07/31 12:51:46;;;;;;;;;;;;;;;38.18;26.86;100735.37;4460151;32;19953;-69
2022/07/31 12:54:12;;;;;;;;;;;;;;;38.42;27.11;100734.03;4461574;32;19960;-69